createdAt,value
2023-07-19T00:00:56.373Z,20.66
2023-07-19T00:06:15.538Z,20.60
2023-07-19T00:11:19.225Z,20.55
2023-07-19T00:16:22.866Z,20.48
2023-07-19T00:21:25.884Z,20.43
2023-07-19T00:26:29.153Z,20.37
2023-07-19T00:31:32.659Z,20.32
2023-07-19T00:36:36.147Z,20.29
2023-07-19T00:41:45.563Z,20.26
2023-07-19T00:46:48.796Z,20.24
2023-07-19T00:51:52.053Z,20.24
2023-07-19T01:02:07.159Z,20.25
2023-07-19T01:07:10.345Z,20.27
2023-07-19T01:12:13.489Z,20.28
2023-07-19T01:17:16.818Z,20.29
2023-07-19T01:22:20.210Z,20.30
2023-07-19T01:27:24.211Z,20.30
2023-07-19T01:32:27.359Z,20.29
2023-07-19T01:37:30.468Z,20.27
2023-07-19T01:42:33.764Z,20.26
2023-07-19T01:47:37.193Z,20.25
2023-07-19T01:52:41.742Z,20.23
2023-07-19T01:57:44.890Z,20.21
2023-07-19T02:02:48.167Z,20.19
2023-07-19T02:07:51.611Z,20.17
2023-07-19T02:12:54.895Z,20.13
2023-07-19T02:17:58.213Z,20.10
2023-07-19T02:23:01.424Z,20.06
2023-07-19T02:28:05.065Z,20.01
2023-07-19T02:33:08.258Z,19.96
2023-07-19T02:38:11.594Z,19.91
2023-07-19T02:43:15.120Z,19.88
2023-07-19T02:48:18.441Z,19.84
2023-07-19T02:53:25.609Z,19.81
2023-07-19T02:58:30.373Z,19.78
2023-07-19T03:03:33.888Z,19.73
2023-07-19T03:08:37.773Z,19.68
2023-07-19T03:13:41.146Z,19.65
2023-07-19T03:18:44.540Z,19.64
2023-07-19T03:23:48.201Z,19.64
2023-07-19T03:28:51.428Z,19.67
2023-07-19T03:33:54.636Z,19.72
2023-07-19T03:38:59.479Z,19.78
2023-07-19T03:44:03.112Z,19.84
2023-07-19T03:49:06.824Z,19.90
2023-07-19T03:54:09.983Z,19.96
2023-07-19T03:59:13.973Z,20.01
2023-07-19T04:04:17.775Z,20.05
2023-07-19T04:09:20.947Z,20.08
2023-07-19T04:14:24.284Z,20.11
2023-07-19T04:19:27.536Z,20.17
2023-07-19T04:24:30.876Z,20.20
2023-07-19T04:29:34.331Z,20.24
2023-07-19T04:34:37.885Z,20.28
2023-07-19T04:39:41.364Z,20.31
2023-07-19T04:44:44.763Z,20.36
2023-07-19T04:49:48.280Z,20.42
2023-07-19T04:54:51.765Z,20.52
2023-07-19T04:59:54.960Z,20.60
2023-07-19T05:04:58.240Z,20.68
2023-07-19T05:10:01.874Z,20.74
2023-07-19T05:15:06.064Z,20.82
2023-07-19T05:20:10.466Z,20.89
2023-07-19T05:25:14.697Z,20.96
2023-07-19T05:30:17.877Z,21.03
2023-07-19T05:35:21.074Z,22.10
2023-07-19T05:40:24.245Z,24.83
2023-07-19T05:45:27.485Z,25.07
2023-07-19T05:50:30.719Z,24.11
2023-07-19T05:55:33.834Z,23.62
2023-07-19T06:00:37.018Z,23.32
2023-07-19T06:05:40.172Z,23.08
2023-07-19T06:10:43.905Z,22.89
2023-07-19T06:15:47.310Z,22.76
2023-07-19T06:20:53.089Z,22.64
2023-07-19T06:25:57.762Z,22.56
2023-07-19T06:31:01.291Z,22.56
2023-07-19T06:36:04.914Z,22.60
2023-07-19T06:41:08.459Z,22.71
2023-07-19T06:46:11.740Z,22.83
2023-07-19T06:51:15.538Z,23.00
2023-07-19T06:56:21.001Z,23.13
2023-07-19T07:01:24.431Z,23.19
2023-07-19T07:06:28.568Z,23.30
2023-07-19T07:11:31.758Z,23.41
2023-07-19T07:16:34.932Z,23.56
2023-07-19T07:21:38.328Z,23.69
2023-07-19T07:26:42.039Z,23.74
2023-07-19T07:31:45.221Z,23.78
2023-07-19T07:36:48.348Z,23.84
2023-07-19T07:41:51.439Z,23.87
2023-07-19T07:46:54.573Z,23.93
2023-07-19T07:51:57.692Z,24.00
2023-07-19T07:57:01.820Z,24.09
2023-07-19T08:02:06.474Z,24.17
2023-07-19T08:07:09.881Z,24.26
2023-07-19T08:12:15.203Z,24.32
2023-07-19T08:17:18.336Z,24.37
2023-07-19T08:22:27.205Z,24.42
2023-07-19T08:27:30.366Z,24.46
2023-07-19T08:32:35.258Z,24.52
2023-07-19T08:37:40.515Z,24.59
2023-07-19T08:42:44.872Z,24.67
2023-07-19T08:47:50.247Z,24.76
2023-07-19T08:52:53.389Z,24.83
2023-07-19T08:57:56.649Z,24.91
2023-07-19T09:02:59.781Z,25.02
2023-07-19T09:08:03.894Z,25.11
2023-07-19T09:13:07.560Z,25.20
2023-07-19T09:18:11.858Z,25.32
2023-07-19T09:23:18.125Z,25.43
2023-07-19T09:28:23.216Z,25.55
2023-07-19T09:33:29.987Z,25.70
2023-07-19T09:38:33.247Z,25.85
2023-07-19T09:43:37.175Z,25.96
2023-07-19T09:48:40.309Z,26.10
2023-07-19T09:53:45.033Z,26.19
2023-07-19T09:58:48.683Z,26.31
2023-07-19T10:03:51.869Z,26.46
2023-07-19T10:09:24.187Z,26.60
2023-07-19T10:14:34.330Z,26.73
2023-07-19T10:19:38.030Z,26.88
2023-07-19T10:29:02.742Z,27.15
2023-07-19T10:34:05.945Z,27.24
2023-07-19T10:39:09.179Z,27.27
2023-07-19T10:44:13.221Z,27.38
2023-07-19T10:49:16.695Z,27.48
2023-07-19T10:54:22.944Z,27.53
2023-07-19T10:59:26.706Z,27.57
2023-07-19T11:04:30.729Z,27.58
2023-07-19T11:09:34.620Z,27.73
2023-07-19T11:14:44.178Z,27.92
2023-07-19T11:19:47.417Z,28.04
2023-07-19T11:24:51.869Z,28.26
2023-07-19T11:29:56.344Z,28.54
2023-07-19T11:35:01.669Z,28.81
2023-07-19T11:40:11.070Z,29.06
2023-07-19T11:45:14.623Z,29.36
2023-07-19T11:50:17.901Z,29.57
2023-07-19T11:55:22.270Z,29.74
2023-07-19T12:00:25.579Z,29.90
2023-07-19T12:05:29.819Z,30.08
2023-07-19T12:10:33.478Z,30.21
2023-07-19T12:15:36.659Z,30.35
2023-07-19T12:20:39.887Z,30.49
2023-07-19T12:25:44.435Z,30.66
2023-07-19T12:30:47.724Z,30.83
2023-07-19T12:35:50.890Z,30.95
2023-07-19T12:40:54.702Z,31.04
2023-07-19T12:45:58.043Z,30.98
2023-07-19T12:51:03.875Z,31.07
2023-07-19T12:56:08.256Z,31.22
2023-07-19T13:01:13.676Z,31.37
2023-07-19T13:06:18.333Z,31.47
2023-07-19T13:11:21.614Z,31.57
2023-07-19T13:16:25.170Z,31.70
2023-07-19T13:21:29.002Z,31.83
2023-07-19T13:26:32.459Z,31.77
2023-07-19T13:31:47.302Z,31.67
2023-07-19T13:36:54.258Z,31.71
2023-07-19T13:41:58.341Z,31.84
2023-07-19T13:47:03.740Z,31.95
2023-07-19T13:52:07.514Z,31.99
2023-07-19T14:02:07.580Z,32.02
2023-07-19T14:07:11.411Z,32.03
2023-07-19T14:12:15.936Z,32.06
2023-07-19T14:17:19.231Z,32.08
2023-07-19T14:22:22.498Z,32.13
2023-07-19T14:27:25.681Z,32.15
2023-07-19T14:32:31.401Z,32.03
2023-07-19T14:37:35.056Z,31.89
2023-07-19T14:42:38.898Z,31.78
2023-07-19T14:47:48.042Z,31.66
2023-07-19T14:53:08.324Z,31.51
2023-07-19T15:07:23.050Z,30.96
2023-07-19T15:12:26.696Z,30.84
2023-07-19T15:17:31.454Z,30.73
2023-07-19T15:22:35.535Z,30.56
2023-07-19T15:27:38.848Z,30.37
2023-07-19T15:32:42.727Z,30.24
2023-07-19T15:37:46.334Z,30.17
2023-07-19T15:42:49.583Z,30.06
2023-07-19T15:47:53.157Z,29.94
2023-07-19T15:53:00.510Z,29.84
2023-07-19T15:58:03.894Z,29.76
2023-07-19T16:03:07.191Z,29.69
2023-07-19T16:08:11.270Z,29.66
2023-07-19T16:13:14.523Z,29.66
2023-07-19T16:18:17.677Z,29.63
2023-07-19T16:23:20.899Z,29.57
2023-07-19T16:28:24.324Z,29.48
2023-07-19T16:33:27.668Z,29.42
2023-07-19T16:38:31.039Z,29.37
2023-07-19T16:43:34.201Z,29.33
2023-07-19T16:48:37.730Z,29.30
2023-07-19T16:53:40.901Z,29.26
2023-07-19T16:58:44.346Z,29.20
2023-07-19T17:03:47.648Z,29.14
2023-07-19T17:08:51.373Z,29.09
2023-07-19T17:13:54.894Z,29.03
2023-07-19T17:19:09.925Z,28.97
2023-07-19T17:24:21.392Z,28.93
2023-07-19T17:29:24.549Z,28.88
2023-07-19T17:34:27.912Z,28.85
2023-07-19T17:39:31.363Z,28.80
2023-07-19T17:44:36.572Z,28.75
2023-07-19T17:49:40.010Z,28.71
2023-07-19T17:54:43.227Z,28.66
2023-07-19T17:59:46.510Z,28.59
2023-07-19T18:04:54.598Z,28.53
2023-07-19T18:09:57.728Z,28.44
2023-07-19T18:15:20.512Z,28.32
2023-07-19T18:20:23.824Z,28.22
2023-07-19T18:25:27.050Z,28.11
2023-07-19T18:30:30.267Z,28.00
2023-07-19T18:35:33.449Z,27.85
2023-07-19T18:40:36.655Z,27.71
2023-07-19T18:45:39.860Z,27.55
2023-07-19T18:50:44.304Z,27.38
2023-07-19T18:55:47.541Z,27.21
2023-07-19T19:00:50.801Z,27.06
2023-07-19T19:05:54.240Z,26.94
2023-07-19T19:10:57.911Z,26.80
2023-07-19T19:16:01.169Z,26.67
2023-07-19T19:21:04.526Z,26.56
2023-07-19T19:26:07.727Z,26.46
2023-07-19T19:31:11.473Z,26.36
2023-07-19T19:36:14.928Z,26.23
2023-07-19T19:41:18.133Z,26.08
2023-07-19T19:46:21.335Z,25.93
2023-07-19T19:51:24.734Z,25.79
2023-07-19T19:56:31.955Z,25.69
2023-07-19T20:01:36.031Z,25.60
2023-07-19T20:06:39.553Z,25.51
2023-07-19T20:11:46.990Z,25.42
2023-07-19T20:16:51.530Z,25.33
2023-07-19T20:21:55.043Z,25.22
2023-07-19T20:26:59.081Z,25.13
2023-07-19T20:32:02.684Z,25.04
2023-07-19T20:42:12.247Z,24.86
2023-07-19T20:47:16.866Z,24.79
2023-07-19T20:52:21.573Z,24.74
2023-07-19T20:57:24.858Z,24.70
2023-07-19T21:02:28.025Z,24.68
2023-07-19T21:07:31.539Z,24.66
2023-07-19T21:12:34.944Z,24.65
2023-07-19T21:17:40.397Z,24.63
2023-07-19T21:22:44.945Z,24.62
2023-07-19T21:27:48.114Z,24.60
2023-07-19T21:32:51.378Z,24.58
2023-07-19T21:37:54.429Z,24.57
2023-07-19T21:42:57.748Z,24.58
2023-07-19T21:48:01.795Z,24.57
2023-07-19T21:53:04.911Z,24.53
2023-07-19T21:58:08.019Z,24.50
2023-07-19T22:03:13.175Z,24.44
2023-07-19T22:08:16.753Z,24.37
2023-07-19T22:13:20.036Z,24.31
2023-07-19T22:18:27.284Z,24.30
2023-07-19T22:23:30.734Z,24.31
2023-07-19T22:28:37.457Z,24.33
2023-07-19T22:33:40.772Z,24.36
2023-07-19T22:38:43.915Z,24.37
2023-07-19T22:43:47.356Z,24.32
2023-07-19T22:48:50.752Z,24.22
2023-07-19T22:53:54.185Z,24.13
2023-07-19T22:58:57.541Z,24.08
2023-07-19T23:04:00.842Z,24.05
2023-07-19T23:09:06.176Z,24.02
2023-07-19T23:14:10.658Z,23.98
2023-07-19T23:19:13.803Z,23.97
2023-07-19T23:24:17.824Z,23.95
2023-07-19T23:29:25.930Z,23.94
2023-07-19T23:34:30.192Z,23.92
2023-07-19T23:39:33.742Z,23.89
2023-07-19T23:44:40.623Z,23.87
2023-07-19T23:49:44.266Z,23.85
2023-07-19T23:54:47.550Z,23.83
2023-07-19T23:59:51.059Z,23.80
